createdAt,value
2023-03-22T00:00:54.162Z,995.11
2023-03-22T00:01:54.138Z,995.12
2023-03-22T00:02:54.137Z,995.15
2023-03-22T00:03:54.199Z,995.17
2023-03-22T00:04:54.087Z,995.15
2023-03-22T00:05:54.099Z,995.10
2023-03-22T00:06:54.049Z,995.17
2023-03-22T00:07:54.068Z,995.13
2023-03-22T00:08:54.052Z,995.14
2023-03-22T00:09:54.029Z,995.11
2023-03-22T00:10:54.052Z,995.11
2023-03-22T00:11:53.992Z,995.15
2023-03-22T00:12:53.998Z,995.09
2023-03-22T00:13:53.968Z,995.11
2023-03-22T00:14:54.223Z,995.11
2023-03-22T00:15:54.030Z,995.10
2023-03-22T00:16:54.007Z,995.03
2023-03-22T00:17:53.928Z,995.05
2023-03-22T00:18:53.972Z,995.05
2023-03-22T00:19:53.918Z,995.08
2023-03-22T00:20:53.905Z,995.05
2023-03-22T00:21:53.897Z,995.05
2023-03-22T00:22:53.944Z,995.03
2023-03-22T00:23:53.864Z,995.00
2023-03-22T00:24:53.864Z,995.03
2023-03-22T00:25:53.844Z,995.00
2023-03-22T00:26:53.831Z,995.02
2023-03-22T00:27:53.811Z,994.97
2023-03-22T00:28:53.810Z,994.95
2023-03-22T00:29:53.808Z,994.96
2023-03-22T00:30:53.829Z,994.91
2023-03-22T00:31:53.814Z,994.92
2023-03-22T00:32:53.761Z,994.94
2023-03-22T00:33:53.781Z,994.94
2023-03-22T00:34:53.749Z,994.94
2023-03-22T00:35:53.784Z,994.86
2023-03-22T00:36:53.704Z,994.81
2023-03-22T00:37:53.704Z,994.87
2023-03-22T00:38:53.699Z,994.84
2023-03-22T00:39:53.801Z,994.84
2023-03-22T00:40:53.669Z,994.84
2023-03-22T00:41:53.696Z,994.81
2023-03-22T00:42:53.655Z,994.75
2023-03-22T00:43:53.654Z,994.75
2023-03-22T00:44:53.615Z,994.73
2023-03-22T00:45:53.642Z,994.73
2023-03-22T00:46:53.599Z,994.70
2023-03-22T00:47:53.602Z,994.68
2023-03-22T00:48:53.596Z,994.64
2023-03-22T00:49:53.564Z,994.71
2023-03-22T00:50:53.589Z,994.69
2023-03-22T00:51:53.556Z,994.63
2023-03-22T00:52:53.535Z,994.67
2023-03-22T00:53:53.527Z,994.59
2023-03-22T00:54:53.514Z,994.62
2023-03-22T00:55:53.521Z,994.61
2023-03-22T00:56:53.529Z,994.61
2023-03-22T00:57:53.469Z,994.67
2023-03-22T00:58:53.465Z,994.61
2023-03-22T00:59:53.461Z,994.59
2023-03-22T01:00:53.539Z,994.55
2023-03-22T01:01:53.476Z,994.56
2023-03-22T01:02:53.484Z,994.53
2023-03-22T01:03:53.464Z,994.60
2023-03-22T01:04:53.396Z,994.61
2023-03-22T01:05:53.498Z,994.56
2023-03-22T01:06:53.369Z,994.58
2023-03-22T01:07:53.378Z,994.53
2023-03-22T01:08:53.355Z,994.55
2023-03-22T01:09:53.316Z,994.48
2023-03-22T01:10:53.329Z,994.54
2023-03-22T01:11:53.297Z,994.52
2023-03-22T01:12:53.316Z,994.45
2023-03-22T01:13:53.305Z,994.52
2023-03-22T01:14:53.305Z,994.54
2023-03-22T01:15:53.272Z,994.54
2023-03-22T01:16:53.268Z,994.48
2023-03-22T01:17:53.248Z,994.47
2023-03-22T01:18:53.230Z,994.59
2023-03-22T01:19:53.226Z,994.54
2023-03-22T01:20:53.198Z,994.57
2023-03-22T01:21:53.177Z,994.56
2023-03-22T01:22:53.173Z,994.58
2023-03-22T01:23:53.179Z,994.65
2023-03-22T01:24:53.184Z,994.60
2023-03-22T01:25:53.182Z,994.55
2023-03-22T01:26:53.125Z,994.57
2023-03-22T01:27:53.128Z,994.53
2023-03-22T01:28:53.108Z,994.48
2023-03-22T01:29:53.087Z,994.51
2023-03-22T01:30:53.145Z,994.43
2023-03-22T01:31:55.960Z,994.46
2023-03-22T01:32:53.083Z,994.44
2023-03-22T01:33:53.049Z,994.39
2023-03-22T01:34:53.047Z,994.48
2023-03-22T01:35:53.197Z,994.41
2023-03-22T01:36:53.068Z,994.48
2023-03-22T01:37:52.999Z,994.42
2023-03-22T01:38:53.011Z,994.44
2023-03-22T01:39:52.980Z,994.45
2023-03-22T01:40:52.976Z,994.39
2023-03-22T01:41:52.977Z,994.42
2023-03-22T01:42:52.977Z,994.37
2023-03-22T01:43:52.935Z,994.39
2023-03-22T01:44:52.932Z,994.33
2023-03-22T01:45:52.973Z,994.33
2023-03-22T01:46:52.930Z,994.38
2023-03-22T01:47:53.003Z,994.36
2023-03-22T01:48:52.902Z,994.34
2023-03-22T01:49:52.880Z,994.33
2023-03-22T01:50:52.852Z,994.26
2023-03-22T01:51:52.844Z,994.25
2023-03-22T01:52:52.845Z,994.25
2023-03-22T01:53:52.849Z,994.27
2023-03-22T01:54:52.838Z,994.28
2023-03-22T01:55:52.793Z,994.28
2023-03-22T01:56:52.785Z,994.27
2023-03-22T01:57:52.775Z,994.22
2023-03-22T01:58:52.776Z,994.29
2023-03-22T01:59:52.798Z,994.28
2023-03-22T02:00:52.739Z,994.27
2023-03-22T02:01:52.727Z,994.26
2023-03-22T02:02:52.782Z,994.23
2023-03-22T02:03:52.706Z,994.21
2023-03-22T02:04:52.719Z,994.20
2023-03-22T02:05:52.714Z,994.23
2023-03-22T02:06:52.666Z,994.27
2023-03-22T02:07:52.667Z,994.21
2023-03-22T02:08:52.678Z,994.19
2023-03-22T02:09:52.646Z,994.16
2023-03-22T02:10:52.848Z,994.11
2023-03-22T02:11:52.620Z,994.14
2023-03-22T02:12:52.611Z,994.06
2023-03-22T02:13:52.602Z,994.05
2023-03-22T02:14:52.580Z,993.97
2023-03-22T02:15:52.662Z,993.97
2023-03-22T02:16:52.580Z,993.95
2023-03-22T02:17:52.567Z,993.93
2023-03-22T02:18:52.554Z,993.96
2023-03-22T02:19:52.561Z,993.92
2023-03-22T02:20:52.506Z,993.96
2023-03-22T02:21:52.558Z,993.96
2023-03-22T02:22:52.519Z,993.95
2023-03-22T02:23:52.489Z,993.91
2023-03-22T02:24:52.470Z,993.91
2023-03-22T02:25:52.454Z,993.89
2023-03-22T02:26:52.466Z,993.86
2023-03-22T02:27:56.055Z,993.86
2023-03-22T02:28:52.419Z,993.80
2023-03-22T02:29:52.408Z,993.86
2023-03-22T02:30:52.465Z,993.88
2023-03-22T02:31:52.389Z,993.80
2023-03-22T02:32:52.403Z,993.78
2023-03-22T02:33:52.361Z,993.79
2023-03-22T02:34:52.368Z,993.85
2023-03-22T02:35:52.406Z,993.81
2023-03-22T02:36:52.326Z,993.89
2023-03-22T02:37:52.331Z,993.85
2023-03-22T02:38:52.465Z,993.95
2023-03-22T02:39:52.305Z,993.96
2023-03-22T02:40:52.280Z,993.82
2023-03-22T02:41:52.296Z,993.92
2023-03-22T02:42:52.264Z,993.95
2023-03-22T02:43:52.241Z,993.97
2023-03-22T02:44:52.249Z,993.92
2023-03-22T02:45:52.237Z,993.93
2023-03-22T02:46:52.322Z,993.92
2023-03-22T02:47:52.227Z,993.93
2023-03-22T02:48:52.218Z,993.91
2023-03-22T02:49:52.203Z,993.93
2023-03-22T02:50:52.181Z,993.90
2023-03-22T02:51:52.156Z,993.99
2023-03-22T02:52:52.140Z,993.92
2023-03-22T02:53:52.132Z,993.88
2023-03-22T02:54:52.120Z,993.89
2023-03-22T02:55:52.194Z,993.91
2023-03-22T02:56:52.111Z,993.86
2023-03-22T02:57:52.150Z,993.94
2023-03-22T02:58:52.093Z,993.87
2023-03-22T02:59:52.081Z,993.89
2023-03-22T03:00:52.120Z,993.84
2023-03-22T03:01:52.126Z,993.89
2023-03-22T03:02:52.043Z,993.80
2023-03-22T03:03:52.033Z,993.83
2023-03-22T03:04:52.042Z,993.89
2023-03-22T03:05:52.012Z,993.89
2023-03-22T03:06:52.084Z,993.87
2023-03-22T03:07:51.984Z,993.88
2023-03-22T03:08:51.974Z,993.88
2023-03-22T03:09:51.954Z,993.84
2023-03-22T03:10:51.960Z,993.84
2023-03-22T03:11:51.941Z,993.86
2023-03-22T03:12:52.090Z,993.87
2023-03-22T03:13:51.935Z,993.88
2023-03-22T03:14:51.904Z,993.90
2023-03-22T03:15:51.979Z,993.88
2023-03-22T03:16:51.879Z,993.87
2023-03-22T03:17:51.866Z,993.85
2023-03-22T03:18:52.129Z,993.79
2023-03-22T03:19:51.852Z,993.87
2023-03-22T03:20:51.825Z,993.82
2023-03-22T03:21:51.831Z,993.85
2023-03-22T03:22:51.795Z,993.87
2023-03-22T03:23:51.826Z,993.85
2023-03-22T03:24:51.816Z,993.85
2023-03-22T03:25:51.781Z,993.80
2023-03-22T03:26:51.767Z,993.89
2023-03-22T03:27:51.778Z,993.80
2023-03-22T03:28:51.770Z,993.88
2023-03-22T03:29:51.747Z,993.87
2023-03-22T03:30:51.746Z,993.89
2023-03-22T03:31:51.754Z,993.81
2023-03-22T03:32:51.704Z,993.83
2023-03-22T03:33:51.694Z,993.84
2023-03-22T03:34:51.680Z,993.87
2023-03-22T03:35:51.685Z,993.82
2023-03-22T03:36:51.669Z,993.82
2023-03-22T03:37:51.656Z,993.75
2023-03-22T03:38:51.629Z,993.82
2023-03-22T03:39:51.620Z,993.69
2023-03-22T03:40:51.695Z,993.74
2023-03-22T03:41:51.580Z,993.66
2023-03-22T03:42:51.588Z,993.73
2023-03-22T03:43:51.570Z,993.70
2023-03-22T03:44:51.571Z,993.75
2023-03-22T03:45:51.548Z,993.64
2023-03-22T03:46:51.713Z,993.74
2023-03-22T03:47:51.583Z,993.66
2023-03-22T03:48:51.501Z,993.67
2023-03-22T03:49:51.525Z,993.68
2023-03-22T03:50:51.552Z,993.66
2023-03-22T03:51:51.473Z,993.72
2023-03-22T03:52:51.510Z,993.68
2023-03-22T03:53:51.550Z,993.63
2023-03-22T03:54:51.434Z,993.64
2023-03-22T03:55:51.435Z,993.61
2023-03-22T03:56:51.478Z,993.63
2023-03-22T03:57:51.408Z,993.62
2023-03-22T03:58:51.421Z,993.60
2023-03-22T03:59:51.405Z,993.66
2023-03-22T04:00:51.372Z,993.58
2023-03-22T04:01:51.389Z,993.60
2023-03-22T04:02:51.366Z,993.61
2023-03-22T04:03:51.344Z,993.53
2023-03-22T04:04:51.428Z,993.56
2023-03-22T04:05:51.317Z,993.60
2023-03-22T04:06:51.307Z,993.58
2023-03-22T04:07:51.288Z,993.53
2023-03-22T04:08:51.316Z,993.51
2023-03-22T04:09:51.311Z,993.50
2023-03-22T04:10:51.376Z,993.56
2023-03-22T04:11:51.284Z,993.54
2023-03-22T04:12:51.431Z,993.52
2023-03-22T04:13:51.217Z,993.57
2023-03-22T04:14:51.206Z,993.54
2023-03-22T04:15:51.206Z,993.54
2023-03-22T04:16:52.561Z,993.57
2023-03-22T04:17:51.183Z,993.52
2023-03-22T04:18:51.235Z,993.51
2023-03-22T04:19:51.147Z,993.51
2023-03-22T04:20:51.169Z,993.52
2023-03-22T04:21:51.156Z,993.51
2023-03-22T04:22:51.219Z,993.47
2023-03-22T04:23:51.127Z,993.45
2023-03-22T04:24:51.349Z,993.42
2023-03-22T04:25:51.098Z,993.43
2023-03-22T04:26:51.076Z,993.48
2023-03-22T04:27:51.120Z,993.45
2023-03-22T04:28:51.085Z,993.45
2023-03-22T04:29:51.224Z,993.45
2023-03-22T04:30:51.210Z,993.43
2023-03-22T04:31:51.018Z,993.41
2023-03-22T04:32:51.750Z,993.47
2023-03-22T04:33:50.996Z,993.42
2023-03-22T04:34:51.093Z,993.42
2023-03-22T04:35:51.017Z,993.42
2023-03-22T04:36:51.055Z,993.40
2023-03-22T04:37:51.012Z,993.47
2023-03-22T04:38:50.966Z,993.38
2023-03-22T04:39:51.064Z,993.37
2023-03-22T04:40:50.959Z,993.34
2023-03-22T04:41:50.912Z,993.32
2023-03-22T04:42:50.896Z,993.27
2023-03-22T04:43:50.960Z,993.27
2023-03-22T04:44:50.858Z,993.24
2023-03-22T04:45:50.868Z,993.28
2023-03-22T04:46:51.056Z,993.31
2023-03-22T04:47:50.875Z,993.30
2023-03-22T04:48:50.808Z,993.31
2023-03-22T04:49:50.812Z,993.32
2023-03-22T04:50:50.790Z,993.29
2023-03-22T04:51:50.788Z,993.31
2023-03-22T04:52:50.795Z,993.24
2023-03-22T04:53:50.739Z,993.24
2023-03-22T04:54:51.438Z,993.22
2023-03-22T04:55:50.733Z,993.20
2023-03-22T04:56:50.734Z,993.20
2023-03-22T04:57:50.760Z,993.21
2023-03-22T04:58:50.685Z,993.21
2023-03-22T04:59:50.692Z,993.18
2023-03-22T05:00:50.688Z,993.17
2023-03-22T05:01:50.683Z,993.23
2023-03-22T05:02:50.682Z,993.22
2023-03-22T05:03:50.838Z,993.24
2023-03-22T05:04:50.621Z,993.19
2023-03-22T05:05:50.654Z,993.23
2023-03-22T05:06:50.600Z,993.23
2023-03-22T05:07:50.596Z,993.24
2023-03-22T05:08:50.614Z,993.30
2023-03-22T05:09:50.622Z,993.24
2023-03-22T05:10:50.556Z,993.36
2023-03-22T05:11:50.549Z,993.32
2023-03-22T05:12:50.529Z,993.31
2023-03-22T05:13:50.524Z,993.35
2023-03-22T05:14:50.535Z,993.38
2023-03-22T05:15:50.618Z,993.33
2023-03-22T05:16:50.480Z,993.39
2023-03-22T05:17:50.484Z,993.41
2023-03-22T05:18:50.474Z,993.44
2023-03-22T05:19:50.532Z,993.39
2023-03-22T05:20:50.442Z,993.45
2023-03-22T05:21:50.481Z,993.42
2023-03-22T05:22:50.419Z,993.41
2023-03-22T05:23:51.557Z,993.41
2023-03-22T05:24:50.382Z,993.43
2023-03-22T05:25:50.407Z,993.42
2023-03-22T05:26:51.088Z,993.36
2023-03-22T05:27:50.384Z,993.37
2023-03-22T05:28:50.350Z,993.43
2023-03-22T05:29:50.334Z,993.38
2023-03-22T05:30:50.327Z,993.37
2023-03-22T05:31:50.602Z,993.36
2023-03-22T05:32:50.305Z,993.32
2023-03-22T05:33:50.364Z,993.37
2023-03-22T05:34:50.277Z,993.35
2023-03-22T05:35:50.299Z,993.35
2023-03-22T05:36:50.281Z,993.35
2023-03-22T05:37:50.266Z,993.35
2023-03-22T05:38:50.226Z,993.36
2023-03-22T05:39:50.252Z,993.39
2023-03-22T05:40:50.212Z,993.37
2023-03-22T05:41:50.217Z,993.41
2023-03-22T05:42:50.200Z,993.41
2023-03-22T05:43:50.167Z,993.46
2023-03-22T05:44:50.183Z,993.42
2023-03-22T05:45:50.184Z,993.43
2023-03-22T05:46:50.160Z,993.44
2023-03-22T05:47:50.169Z,993.46
2023-03-22T05:48:50.137Z,993.51
2023-03-22T05:49:50.125Z,993.46
2023-03-22T05:50:50.205Z,993.43
2023-03-22T05:51:50.161Z,993.37
2023-03-22T05:52:50.082Z,993.36
2023-03-22T05:53:50.065Z,993.36
2023-03-22T05:54:50.072Z,993.38
2023-03-22T05:55:50.046Z,993.40
2023-03-22T05:56:50.076Z,993.37
2023-03-22T05:57:50.021Z,993.32
2023-03-22T05:58:50.020Z,993.40
2023-03-22T05:59:50.015Z,993.41
2023-03-22T06:00:49.988Z,993.33
2023-03-22T06:01:49.990Z,993.38
2023-03-22T06:02:50.073Z,993.35
2023-03-22T06:03:49.944Z,993.39
2023-03-22T06:04:49.986Z,993.40
2023-03-22T06:05:49.957Z,993.33
2023-03-22T06:06:49.914Z,993.35
2023-03-22T06:07:49.949Z,993.40
2023-03-22T06:08:49.930Z,993.37
2023-03-22T06:09:49.876Z,993.37
2023-03-22T06:10:49.882Z,993.29
2023-03-22T06:11:49.865Z,993.33
2023-03-22T06:12:49.905Z,993.32
2023-03-22T06:13:49.827Z,993.23
2023-03-22T06:14:49.859Z,993.21
2023-03-22T06:15:49.862Z,993.21
2023-03-22T06:16:49.909Z,993.18
2023-03-22T06:17:49.791Z,993.18
2023-03-22T06:18:49.789Z,993.25
2023-03-22T06:19:52.023Z,993.23
2023-03-22T06:20:49.757Z,993.22
2023-03-22T06:21:49.750Z,993.19
2023-03-22T06:22:49.753Z,993.23
2023-03-22T06:23:49.716Z,993.23
2023-03-22T06:24:49.712Z,993.33
2023-03-22T06:25:49.724Z,993.36
2023-03-22T06:26:49.678Z,993.33
2023-03-22T06:27:49.735Z,993.34
2023-03-22T06:28:49.667Z,993.34
2023-03-22T06:29:49.678Z,993.34
2023-03-22T06:30:49.788Z,993.38
2023-03-22T06:31:49.614Z,993.36
2023-03-22T06:32:49.653Z,993.39
2023-03-22T06:33:49.611Z,993.36
2023-03-22T06:34:49.583Z,993.41
2023-03-22T06:35:49.668Z,993.49
2023-03-22T06:36:49.637Z,993.50
2023-03-22T06:37:49.552Z,993.46
2023-03-22T06:38:49.556Z,993.48
2023-03-22T06:39:49.553Z,993.44
2023-03-22T06:40:49.537Z,993.51
2023-03-22T06:41:49.530Z,993.50
2023-03-22T06:42:49.483Z,993.50
2023-03-22T06:43:49.473Z,993.50
2023-03-22T06:44:49.468Z,993.46
2023-03-22T06:45:49.498Z,993.55
2023-03-22T06:46:49.451Z,993.56
2023-03-22T06:47:49.559Z,993.51
2023-03-22T06:48:49.423Z,993.51
2023-03-22T06:49:49.451Z,993.50
2023-03-22T06:50:49.401Z,993.57
2023-03-22T06:51:49.405Z,993.55
2023-03-22T06:52:49.380Z,993.52
2023-03-22T06:53:49.457Z,993.63
2023-03-22T06:54:49.389Z,993.51
2023-03-22T06:55:49.373Z,993.50
2023-03-22T06:56:49.340Z,993.55
2023-03-22T06:57:49.313Z,993.58
2023-03-22T06:58:49.355Z,993.63
2023-03-22T06:59:49.320Z,993.54
2023-03-22T07:00:49.290Z,993.54
2023-03-22T07:01:49.275Z,993.53
2023-03-22T07:02:52.234Z,993.53
2023-03-22T07:03:49.242Z,993.55
2023-03-22T07:04:49.386Z,993.49
2023-03-22T07:05:49.245Z,993.57
2023-03-22T07:06:49.213Z,993.50
2023-03-22T07:07:49.193Z,993.60
2023-03-22T07:08:50.865Z,993.54
2023-03-22T07:09:49.178Z,993.55
2023-03-22T07:10:49.227Z,993.56
2023-03-22T07:11:49.321Z,993.54
2023-03-22T07:12:49.153Z,993.51
2023-03-22T07:13:49.158Z,993.53
2023-03-22T07:14:49.134Z,993.58
2023-03-22T07:15:49.173Z,993.55
2023-03-22T07:16:49.159Z,993.59
2023-03-22T07:17:49.099Z,993.62
2023-03-22T07:18:49.092Z,993.57
2023-03-22T07:19:49.099Z,993.71
2023-03-22T07:20:49.048Z,993.69
2023-03-22T07:21:49.077Z,993.72
2023-03-22T07:22:49.080Z,993.72
2023-03-22T07:23:49.015Z,993.63
2023-03-22T07:24:56.670Z,993.61
2023-03-22T07:25:50.057Z,993.54
2023-03-22T07:26:48.992Z,993.60
2023-03-22T07:27:49.077Z,993.61
2023-03-22T07:28:48.996Z,993.59
2023-03-22T07:29:48.938Z,993.55
2023-03-22T07:30:49.169Z,993.59
2023-03-22T07:31:49.145Z,993.52
2023-03-22T07:32:49.197Z,993.52
2023-03-22T07:33:48.976Z,993.45
2023-03-22T07:34:48.894Z,993.45
2023-03-22T07:35:48.898Z,993.49
2023-03-22T07:36:48.881Z,993.44
2023-03-22T07:37:48.857Z,993.42
2023-03-22T07:38:48.841Z,993.42
2023-03-22T07:39:48.908Z,993.40
2023-03-22T07:40:48.814Z,993.45
2023-03-22T07:41:48.835Z,993.40
2023-03-22T07:42:48.848Z,993.40
2023-03-22T07:43:56.565Z,993.46
2023-03-22T07:44:50.068Z,993.46
2023-03-22T07:45:49.013Z,993.40
2023-03-22T07:46:48.851Z,993.44
2023-03-22T07:47:48.778Z,993.43
2023-03-22T07:48:48.746Z,993.43
2023-03-22T07:49:48.709Z,993.40
2023-03-22T07:50:48.747Z,993.42
2023-03-22T07:51:48.690Z,993.43
2023-03-22T07:52:48.722Z,993.39
2023-03-22T07:53:48.697Z,993.36
2023-03-22T07:54:48.669Z,993.39
2023-03-22T07:55:48.685Z,993.33
2023-03-22T07:56:48.660Z,993.39
2023-03-22T07:57:48.623Z,993.45
2023-03-22T07:58:48.646Z,993.46
2023-03-22T07:59:48.608Z,993.41
2023-03-22T08:00:48.616Z,993.42
2023-03-22T08:01:48.699Z,993.34
2023-03-22T08:02:48.692Z,993.31
2023-03-22T08:03:48.552Z,993.31
2023-03-22T08:04:51.544Z,993.40
2023-03-22T08:05:48.565Z,993.39
2023-03-22T08:06:48.520Z,993.39
2023-03-22T08:07:48.543Z,993.39
2023-03-22T08:08:48.565Z,993.39
2023-03-22T08:09:48.488Z,993.31
2023-03-22T08:10:49.396Z,993.36
2023-03-22T08:11:48.452Z,993.37
2023-03-22T08:12:48.488Z,993.41
2023-03-22T08:13:48.436Z,993.41
2023-03-22T08:14:48.454Z,993.38
2023-03-22T08:15:48.425Z,993.39
2023-03-22T08:16:48.458Z,993.39
2023-03-22T08:17:48.412Z,993.43
2023-03-22T08:18:48.406Z,993.40
2023-03-22T08:19:48.470Z,993.40
2023-03-22T08:20:48.371Z,993.44
2023-03-22T08:21:48.335Z,993.49
2023-03-22T08:22:48.377Z,993.38
2023-03-22T08:23:49.503Z,993.33
2023-03-22T08:24:48.323Z,993.30
2023-03-22T08:25:48.347Z,993.30
2023-03-22T08:26:48.278Z,993.36
2023-03-22T08:27:48.275Z,993.35
2023-03-22T08:28:48.264Z,993.27
2023-03-22T08:29:48.520Z,993.26
2023-03-22T08:30:48.261Z,993.29
2023-03-22T08:31:48.335Z,993.23
2023-03-22T08:32:48.207Z,993.28
2023-03-22T08:33:48.221Z,993.35
2023-03-22T08:34:48.196Z,993.21
2023-03-22T08:35:48.257Z,993.29
2023-03-22T08:36:48.165Z,993.30
2023-03-22T08:37:48.287Z,993.27
2023-03-22T08:38:48.392Z,993.28
2023-03-22T08:39:48.125Z,993.27
2023-03-22T08:40:48.156Z,993.35
2023-03-22T08:41:48.107Z,993.34
2023-03-22T08:42:48.110Z,993.35
2023-03-22T08:43:48.117Z,993.30
2023-03-22T08:44:48.097Z,993.33
2023-03-22T08:45:48.108Z,993.40
2023-03-22T08:46:48.074Z,993.36
2023-03-22T08:47:48.066Z,993.32
2023-03-22T08:48:48.052Z,993.31
2023-03-22T08:49:48.047Z,993.20
2023-03-22T08:50:48.063Z,993.24
2023-03-22T08:51:47.991Z,993.22
2023-03-22T08:52:47.998Z,993.27
2023-03-22T08:53:47.976Z,993.22
2023-03-22T08:54:48.281Z,993.20
2023-03-22T08:55:47.989Z,993.31
2023-03-22T08:56:47.938Z,993.15
2023-03-22T08:57:47.956Z,993.20
2023-03-22T08:58:47.919Z,993.23
2023-03-22T08:59:47.953Z,993.24
2023-03-22T09:00:49.327Z,993.10
2023-03-22T09:01:48.016Z,993.15
2023-03-22T09:02:47.882Z,993.15
2023-03-22T09:03:47.851Z,993.21
2023-03-22T09:04:48.001Z,993.14
2023-03-22T09:05:47.871Z,993.15
2023-03-22T09:06:47.849Z,993.17
2023-03-22T09:07:47.815Z,993.16
2023-03-22T09:08:47.802Z,993.11
2023-03-22T09:09:47.904Z,993.03
2023-03-22T09:10:47.781Z,992.99
2023-03-22T09:11:47.824Z,993.01
2023-03-22T09:12:47.858Z,992.95
2023-03-22T09:13:47.744Z,992.97
2023-03-22T09:14:47.721Z,992.97
2023-03-22T09:15:47.774Z,992.99
2023-03-22T09:16:47.711Z,992.91
2023-03-22T09:17:47.695Z,992.86
2023-03-22T09:18:47.733Z,992.84
2023-03-22T09:19:47.672Z,992.85
2023-03-22T09:20:47.668Z,992.82
2023-03-22T09:21:47.641Z,992.72
2023-03-22T09:22:47.647Z,992.77
2023-03-22T09:23:47.671Z,992.72
2023-03-22T09:24:47.667Z,992.73
2023-03-22T09:25:47.625Z,992.86
2023-03-22T09:26:47.582Z,992.88
2023-03-22T09:27:47.565Z,992.80
2023-03-22T09:28:47.666Z,992.78
2023-03-22T09:29:47.604Z,992.79
2023-03-22T09:30:47.586Z,992.76
2023-03-22T09:31:47.514Z,992.66
2023-03-22T09:32:47.529Z,992.74
2023-03-22T09:33:47.531Z,992.75
2023-03-22T09:34:47.548Z,992.67
2023-03-22T09:35:47.578Z,992.70
2023-03-22T09:36:47.535Z,992.76
2023-03-22T09:37:47.453Z,992.76
2023-03-22T09:38:47.448Z,992.84
2023-03-22T09:39:47.434Z,992.73
2023-03-22T09:40:47.432Z,992.68
2023-03-22T09:41:47.508Z,992.65
2023-03-22T09:42:47.412Z,992.72
2023-03-22T09:43:47.405Z,992.74
2023-03-22T09:44:47.377Z,992.66
2023-03-22T09:45:47.360Z,992.71
2023-03-22T09:46:47.398Z,992.64
2023-03-22T09:47:47.407Z,992.66
2023-03-22T09:48:48.409Z,992.61
2023-03-22T09:49:53.857Z,992.63
2023-03-22T09:50:48.321Z,992.59
2023-03-22T09:51:47.355Z,992.64
2023-03-22T09:52:47.408Z,992.59
2023-03-22T09:53:47.265Z,992.68
2023-03-22T09:54:47.286Z,992.79
2023-03-22T09:55:47.239Z,992.70
2023-03-22T09:56:47.243Z,992.68
2023-03-22T09:57:47.249Z,992.62
2023-03-22T09:58:47.269Z,992.62
2023-03-22T09:59:47.211Z,992.58
2023-03-22T10:00:47.318Z,992.65
2023-03-22T10:01:47.340Z,992.63
2023-03-22T10:02:47.202Z,992.64
2023-03-22T10:03:47.217Z,992.64
2023-03-22T10:04:47.305Z,992.57
2023-03-22T10:05:47.119Z,992.53
2023-03-22T10:06:47.100Z,992.55
2023-03-22T10:07:47.101Z,992.71
2023-03-22T10:08:47.220Z,992.62
2023-03-22T10:09:47.164Z,992.62
2023-03-22T10:10:47.112Z,992.63
2023-03-22T10:11:47.068Z,992.64
2023-03-22T10:12:47.061Z,992.58
2023-03-22T10:13:47.160Z,992.53
2023-03-22T10:14:47.031Z,992.55
2023-03-22T10:15:47.100Z,992.56
2023-03-22T10:16:47.018Z,992.49
2023-03-22T10:17:46.984Z,992.57
2023-03-22T10:18:46.989Z,992.61
2023-03-22T10:19:47.068Z,992.61
2023-03-22T10:20:47.012Z,992.61
2023-03-22T10:21:46.965Z,992.60
2023-03-22T10:22:46.925Z,992.58
2023-03-22T10:23:46.954Z,992.59
2023-03-22T10:24:46.936Z,992.67
2023-03-22T10:25:46.894Z,992.68
2023-03-22T10:26:46.916Z,992.71
2023-03-22T10:27:46.884Z,992.69
2023-03-22T10:28:46.878Z,992.70
2023-03-22T10:29:46.848Z,992.73
2023-03-22T10:30:46.856Z,992.69
2023-03-22T10:31:46.934Z,992.73
2023-03-22T10:32:57.120Z,992.64
2023-03-22T10:33:47.810Z,992.69
2023-03-22T10:34:46.802Z,992.66
2023-03-22T10:35:46.780Z,992.68
2023-03-22T10:36:46.783Z,992.70
2023-03-22T10:37:46.767Z,992.70
2023-03-22T10:38:46.760Z,992.78
2023-03-22T10:39:46.732Z,992.71
2023-03-22T10:40:46.712Z,992.78
2023-03-22T10:41:46.699Z,992.75
2023-03-22T10:42:46.688Z,992.77
2023-03-22T10:43:46.677Z,992.69
2023-03-22T10:44:46.702Z,992.77
2023-03-22T10:45:46.658Z,992.70
2023-03-22T10:46:46.687Z,992.75
2023-03-22T10:47:46.660Z,992.70
2023-03-22T10:48:46.626Z,992.77
2023-03-22T10:49:46.757Z,992.75
2023-03-22T10:50:46.619Z,992.78
2023-03-22T10:51:46.575Z,992.81
2023-03-22T10:52:46.585Z,992.71
2023-03-22T10:53:46.547Z,992.77
2023-03-22T10:54:46.563Z,992.75
2023-03-22T10:55:46.551Z,992.74
2023-03-22T10:56:46.544Z,992.79
2023-03-22T10:57:46.534Z,992.73
2023-03-22T10:58:46.497Z,992.75
2023-03-22T10:59:47.301Z,992.79
2023-03-22T11:00:46.593Z,992.81
2023-03-22T11:01:46.666Z,992.78
2023-03-22T11:02:46.585Z,992.76
2023-03-22T11:03:46.577Z,992.76
2023-03-22T11:04:46.420Z,992.79
2023-03-22T11:05:46.425Z,992.76
2023-03-22T11:06:46.399Z,992.81
2023-03-22T11:07:46.502Z,992.71
2023-03-22T11:08:46.411Z,992.71
2023-03-22T11:09:46.366Z,992.68
2023-03-22T11:10:46.449Z,992.72
2023-03-22T11:11:46.369Z,992.77
2023-03-22T11:12:46.363Z,992.67
2023-03-22T11:13:46.414Z,992.66
2023-03-22T11:14:46.310Z,992.69
2023-03-22T11:15:46.332Z,992.59
2023-03-22T11:16:46.366Z,992.62
2023-03-22T11:17:46.279Z,992.64
2023-03-22T11:18:46.289Z,992.49
2023-03-22T11:19:46.248Z,992.52
2023-03-22T11:20:46.270Z,992.45
2023-03-22T11:21:46.223Z,992.45
2023-03-22T11:22:46.211Z,992.42
2023-03-22T11:23:46.197Z,992.42
2023-03-22T11:24:46.208Z,992.40
2023-03-22T11:25:46.183Z,992.41
2023-03-22T11:26:46.170Z,992.37
2023-03-22T11:27:46.151Z,992.37
2023-03-22T11:28:46.172Z,992.28
2023-03-22T11:29:46.181Z,992.30
2023-03-22T11:30:46.127Z,992.31
2023-03-22T11:31:46.199Z,992.31
2023-03-22T11:32:46.191Z,992.26
2023-03-22T11:33:46.082Z,992.30
2023-03-22T11:34:46.077Z,992.29
2023-03-22T11:35:46.196Z,992.22
2023-03-22T11:37:46.074Z,992.19
2023-03-22T11:38:47.378Z,992.17
2023-03-22T11:39:46.021Z,992.17
2023-03-22T11:40:46.057Z,992.08
2023-03-22T11:41:46.039Z,992.15
2023-03-22T11:42:46.096Z,992.20
2023-03-22T11:43:45.977Z,992.14
2023-03-22T11:44:45.992Z,992.14
2023-03-22T11:45:46.004Z,992.04
2023-03-22T11:46:46.013Z,992.09
2023-03-22T11:47:46.021Z,992.00
2023-03-22T11:48:46.039Z,991.99
2023-03-22T11:49:45.950Z,992.02
2023-03-22T11:50:45.910Z,992.02
2023-03-22T11:51:45.883Z,992.03
2023-03-22T11:52:45.909Z,991.98
2023-03-22T11:53:45.857Z,992.05
2023-03-22T11:54:45.961Z,992.03
2023-03-22T11:55:45.832Z,992.00
2023-03-22T11:56:45.882Z,992.04
2023-03-22T11:57:45.816Z,992.03
2023-03-22T11:58:45.886Z,992.04
2023-03-22T11:59:45.822Z,992.01
2023-03-22T12:00:45.777Z,992.01
2023-03-22T12:01:45.767Z,991.92
2023-03-22T12:02:45.878Z,991.91
2023-03-22T12:03:45.821Z,991.93
2023-03-22T12:04:45.844Z,991.90
2023-03-22T12:05:45.771Z,991.90
2023-03-22T12:06:45.715Z,992.02
2023-03-22T12:07:45.784Z,991.90
2023-03-22T12:08:45.674Z,991.92
2023-03-22T12:09:45.699Z,991.78
2023-03-22T12:10:45.658Z,991.86
2023-03-22T12:11:45.649Z,991.82
2023-03-22T12:12:45.632Z,991.88
2023-03-22T12:13:45.626Z,991.81
2023-03-22T12:14:45.657Z,991.81
2023-03-22T12:15:45.841Z,991.81
2023-03-22T12:16:45.647Z,991.79
2023-03-22T12:17:45.617Z,991.83
2023-03-22T12:18:45.574Z,991.82
2023-03-22T12:19:45.559Z,991.90
2023-03-22T12:20:45.631Z,991.80
2023-03-22T12:21:45.523Z,991.79
2023-03-22T12:22:45.540Z,991.78
2023-03-22T12:23:45.497Z,991.80
2023-03-22T12:24:45.506Z,991.74
2023-03-22T12:25:45.476Z,991.81
2023-03-22T12:26:45.487Z,991.75
2023-03-22T12:27:45.451Z,991.84
2023-03-22T12:28:45.456Z,991.73
2023-03-22T12:29:45.466Z,991.84